Skip to main content.
 TIME   TEMPERATURE   WINDSPEED   DIRECTION   HUMIDITY   BAROMETER   RAINFALL 
8:35 18.9°C (66.0°F) 5.6 kmh (3.5 mph) NNE 90% 1015.6hPa (29.99 inHg) 0.0mm (0.00 in.)
7:35 19.6°C (67.3 °F) 1.9 kmh (1.2 mph) ESE 85% 1015.3hPa (29.98 inHg) 0.0mm (0.00 in.)
6:35 20.6°C (69.1 °F) 9.3 kmh (5.8 mph) SSW 80% 1014.8hPa (29.97 inHg) 0.0mm (0.00 in.)
5:35 21.3°C (70.3 °F) 7.4 kmh (4.6 mph) SSW 78% 1015.0hPa (29.97 inHg) 0.0mm (0.00 in.)
4:35 21.5°C (70.7 °F) 16.7 kmh (10.4 mph) NE 76% 1015.2hPa (29.98 inHg) 0.0mm (0.00 in.)
3:35 22.5°C (72.5 °F) 9.3 kmh (5.8 mph) SE 74% 1015.2hPa (29.98 inHg) 0.0mm (0.00 in.)
2:35 22.2°C (72.0 °F) 5.6 kmh (3.5 mph) SSE 75% 1015.5hPa (29.99 inHg) 0.0mm (0.00 in.)
1:35 22.2°C (72.0 °F) 11.1 kmh (6.9 mph) N 74% 1015.6hPa (29.99 inHg) 0.0mm (0.00 in.)
12:35 21.2°C (70.2 °F) 11.1 kmh (6.9 mph) N 77% 1015.7hPa (29.99 inHg) 0.0mm (0.00 in.)
11:35 20.7°C (69.3 °F) 16.7 kmh (10.4 mph) NE 78% 1015.7hPa (29.99 inHg) 0.0mm (0.00 in.)
10:35 21.0°C (69.8 °F) 18.5 kmh (11.5 mph) NW 79% 1015.4hPa (29.98 inHg) 0.0mm (0.00 in.)
9:35 20.2°C (68.4 °F) 18.5 kmh (11.5 mph) NNE 84% 1015.1hPa (29.98 inHg) 0.0mm (0.00 in.)
8:35 19.6°C (67.3 °F) 9.3 kmh (5.8 mph) NNW 86% 1014.4hPa (29.96 inHg) 0.0mm (0.00 in.)
7:35 18.9°C (66.0 °F) 20.4 kmh (12.7 mph) NNW 98% 1013.7hPa (29.93 inHg) 0.0mm (0.00 in.)
6:35 18.8°C (65.8 °F) 14.8 kmh (9.2 mph) N 98% 1013.2hPa (29.92 inHg) 0.0mm (0.00 in.)
5:35 18.9°C (66.0 °F) 13.0 kmh (8.1 mph) NNE 98% 1012.7hPa (29.91 inHg) 0.0mm (0.00 in.)
4:35 19.1°C (66.4 °F) 5.6 kmh (3.5 mph) NNW 97% 1012.2hPa (29.89 inHg) 0.0mm (0.00 in.)
3:35 19.3°C (66.7 °F) 0.0 kmh (0.0 mph) WNW 98% 1011.9hPa (29.88 inHg) 0.0mm (0.00 in.)
2:35 19.9°C (67.8 °F) 14.8 kmh (9.2 mph) NNW 94% 1012.0hPa (29.88 inHg) 0.0mm (0.00 in.)
1:35 20.1°C (68.2 °F) 3.7 kmh (2.3 mph) N 94% 1012.1hPa (29.89 inHg) 0.0mm (0.00 in.)
12:35 19.9°C (67.8 °F) 14.8 kmh (9.2 mph) NNE 95% 1011.8hPa (29.88 inHg) 0.0mm (0.00 in.)
11:35 20.2°C (68.4 °F) 9.3 kmh (5.8 mph) E 94% 1010.7hPa (29.85 inHg) 0.0mm (0.00 in.)
10:35 20.3°C (68.5 °F) 25.9 kmh (16.1 mph) ENE 96% 1010.3hPa (29.83 inHg) 0.0mm (0.00 in.)
9:35 20.5°C (68.9 °F) 3.7 kmh (2.3 mph) NE 97% 1012.7hPa (29.91 inHg) 0.0mm (0.00 in.)